sensor_id;sensor_type;location;lat;lon;timestamp;P1;durP1;ratioP1;P2;durP2;ratioP2
65202;SDS011;51788;45.124;38.966;2023-07-09T00:00:36;10.07;;;7.50;;
65202;SDS011;51788;45.124;38.966;2023-07-09T00:03:02;9.30;;;7.70;;
65202;SDS011;51788;45.124;38.966;2023-07-09T00:05:28;8.43;;;7.28;;
65202;SDS011;51788;45.124;38.966;2023-07-09T00:07:54;12.70;;;7.20;;
65202;SDS011;51788;45.124;38.966;2023-07-09T00:10:20;10.63;;;7.55;;
65202;SDS011;51788;45.124;38.966;2023-07-09T00:12:47;8.70;;;7.55;;
65202;SDS011;51788;45.124;38.966;2023-07-09T00:15:13;7.22;;;6.63;;
65202;SDS011;51788;45.124;38.966;2023-07-09T00:17:43;12.25;;;7.38;;
65202;SDS011;51788;45.124;38.966;2023-07-09T00:20:14;11.65;;;7.53;;
65202;SDS011;51788;45.124;38.966;2023-07-09T00:22:43;8.00;;;7.30;;
65202;SDS011;51788;45.124;38.966;2023-07-09T00:25:20;10.88;;;7.28;;
65202;SDS011;51788;45.124;38.966;2023-07-09T00:27:47;13.50;;;6.95;;
65202;SDS011;51788;45.124;38.966;2023-07-09T00:30:17;8.80;;;7.53;;
65202;SDS011;51788;45.124;38.966;2023-07-09T00:32:45;12.57;;;7.00;;
65202;SDS011;51788;45.124;38.966;2023-07-09T00:35:12;12.15;;;7.70;;
65202;SDS011;51788;45.124;38.966;2023-07-09T00:37:44;11.80;;;7.65;;
65202;SDS011;51788;45.124;38.966;2023-07-09T00:40:19;11.00;;;7.65;;
65202;SDS011;51788;45.124;38.966;2023-07-09T00:42:47;10.23;;;8.50;;
65202;SDS011;51788;45.124;38.966;2023-07-09T00:45:24;10.70;;;7.82;;
65202;SDS011;51788;45.124;38.966;2023-07-09T00:48:02;13.80;;;7.82;;
65202;SDS011;51788;45.124;38.966;2023-07-09T00:50:51;26.23;;;8.10;;
65202;SDS011;51788;45.124;38.966;2023-07-09T00:53:19;14.77;;;8.35;;
65202;SDS011;51788;45.124;38.966;2023-07-09T00:55:53;16.65;;;8.43;;
65202;SDS011;51788;45.124;38.966;2023-07-09T00:58:35;13.90;;;8.88;;
65202;SDS011;51788;45.124;38.966;2023-07-09T01:01:03;15.25;;;8.23;;
65202;SDS011;51788;45.124;38.966;2023-07-09T01:03:35;12.45;;;8.13;;
65202;SDS011;51788;45.124;38.966;2023-07-09T01:08:33;18.33;;;9.15;;
65202;SDS011;51788;45.124;38.966;2023-07-09T01:11:00;12.05;;;8.82;;
65202;SDS011;51788;45.124;38.966;2023-07-09T01:13:27;11.05;;;9.15;;
65202;SDS011;51788;45.124;38.966;2023-07-09T01:15:54;13.38;;;8.88;;
65202;SDS011;51788;45.124;38.966;2023-07-09T01:18:22;12.05;;;8.57;;
65202;SDS011;51788;45.124;38.966;2023-07-09T01:20:50;13.98;;;8.85;;
65202;SDS011;51788;45.124;38.966;2023-07-09T01:23:18;15.88;;;8.68;;
65202;SDS011;51788;45.124;38.966;2023-07-09T01:25:45;11.82;;;9.65;;
65202;SDS011;51788;45.124;38.966;2023-07-09T01:28:19;15.60;;;10.13;;
65202;SDS011;51788;45.124;38.966;2023-07-09T01:30:46;18.80;;;10.75;;
65202;SDS011;51788;45.124;38.966;2023-07-09T01:33:20;15.85;;;11.25;;
65202;SDS011;51788;45.124;38.966;2023-07-09T01:35:48;16.88;;;10.98;;
65202;SDS011;51788;45.124;38.966;2023-07-09T01:38:14;16.80;;;11.30;;
65202;SDS011;51788;45.124;38.966;2023-07-09T01:40:41;16.10;;;10.32;;
65202;SDS011;51788;45.124;38.966;2023-07-09T01:43:07;15.55;;;11.85;;
65202;SDS011;51788;45.124;38.966;2023-07-09T01:45:34;15.63;;;10.52;;
65202;SDS011;51788;45.124;38.966;2023-07-09T01:48:02;14.98;;;11.50;;
65202;SDS011;51788;45.124;38.966;2023-07-09T01:50:28;14.13;;;10.25;;
65202;SDS011;51788;45.124;38.966;2023-07-09T01:52:55;22.13;;;11.50;;
65202;SDS011;51788;45.124;38.966;2023-07-09T01:55:22;13.70;;;11.10;;
65202;SDS011;51788;45.124;38.966;2023-07-09T01:57:49;15.02;;;9.90;;
65202;SDS011;51788;45.124;38.966;2023-07-09T02:00:17;15.98;;;11.55;;
65202;SDS011;51788;45.124;38.966;2023-07-09T02:02:46;15.23;;;10.98;;
65202;SDS011;51788;45.124;38.966;2023-07-09T02:05:14;14.23;;;10.30;;
65202;SDS011;51788;45.124;38.966;2023-07-09T02:07:41;18.98;;;10.25;;
65202;SDS011;51788;45.124;38.966;2023-07-09T02:10:08;19.08;;;9.80;;
65202;SDS011;51788;45.124;38.966;2023-07-09T02:12:35;15.68;;;9.82;;
65202;SDS011;51788;45.124;38.966;2023-07-09T02:15:01;15.07;;;10.10;;
65202;SDS011;51788;45.124;38.966;2023-07-09T02:17:27;12.60;;;9.80;;
65202;SDS011;51788;45.124;38.966;2023-07-09T02:19:53;13.75;;;8.98;;
65202;SDS011;51788;45.124;38.966;2023-07-09T02:22:19;13.02;;;9.20;;
65202;SDS011;51788;45.124;38.966;2023-07-09T02:24:45;12.70;;;9.65;;
65202;SDS011;51788;45.124;38.966;2023-07-09T02:27:12;20.90;;;9.38;;
65202;SDS011;51788;45.124;38.966;2023-07-09T02:29:41;13.18;;;9.32;;
65202;SDS011;51788;45.124;38.966;2023-07-09T02:32:07;12.80;;;9.80;;
65202;SDS011;51788;45.124;38.966;2023-07-09T02:34:34;15.18;;;10.30;;
65202;SDS011;51788;45.124;38.966;2023-07-09T02:37:00;12.43;;;9.15;;
65202;SDS011;51788;45.124;38.966;2023-07-09T02:39:26;15.38;;;9.65;;
65202;SDS011;51788;45.124;38.966;2023-07-09T02:41:52;19.30;;;9.77;;
65202;SDS011;51788;45.124;38.966;2023-07-09T02:44:18;10.20;;;9.20;;
65202;SDS011;51788;45.124;38.966;2023-07-09T02:46:45;12.55;;;9.43;;
65202;SDS011;51788;45.124;38.966;2023-07-09T02:49:12;13.20;;;9.73;;
65202;SDS011;51788;45.124;38.966;2023-07-09T02:51:39;10.40;;;9.25;;
65202;SDS011;51788;45.124;38.966;2023-07-09T02:54:05;20.27;;;10.15;;
65202;SDS011;51788;45.124;38.966;2023-07-09T02:56:32;15.50;;;10.38;;
65202;SDS011;51788;45.124;38.966;2023-07-09T02:58:58;14.80;;;9.23;;
65202;SDS011;51788;45.124;38.966;2023-07-09T03:01:24;15.43;;;9.13;;
65202;SDS011;51788;45.124;38.966;2023-07-09T03:03:52;10.10;;;9.10;;
65202;SDS011;51788;45.124;38.966;2023-07-09T03:06:22;10.65;;;9.05;;
65202;SDS011;51788;45.124;38.966;2023-07-09T03:08:49;19.90;;;8.98;;
65202;SDS011;51788;45.124;38.966;2023-07-09T03:11:16;17.02;;;9.50;;
65202;SDS011;51788;45.124;38.966;2023-07-09T03:13:43;16.50;;;9.52;;
65202;SDS011;51788;45.124;38.966;2023-07-09T03:16:09;11.73;;;8.40;;
65202;SDS011;51788;45.124;38.966;2023-07-09T03:18:36;14.38;;;9.10;;
65202;SDS011;51788;45.124;38.966;2023-07-09T03:21:02;13.13;;;8.48;;
65202;SDS011;51788;45.124;38.966;2023-07-09T03:23:29;10.02;;;9.02;;
65202;SDS011;51788;45.124;38.966;2023-07-09T03:25:56;12.32;;;9.40;;
65202;SDS011;51788;45.124;38.966;2023-07-09T03:28:22;17.63;;;9.82;;
65202;SDS011;51788;45.124;38.966;2023-07-09T03:30:49;11.10;;;9.48;;
65202;SDS011;51788;45.124;38.966;2023-07-09T03:33:15;12.20;;;8.73;;
65202;SDS011;51788;45.124;38.966;2023-07-09T03:35:42;14.68;;;8.95;;
65202;SDS011;51788;45.124;38.966;2023-07-09T03:38:09;12.55;;;8.98;;
65202;SDS011;51788;45.124;38.966;2023-07-09T03:40:36;15.38;;;9.60;;
65202;SDS011;51788;45.124;38.966;2023-07-09T03:43:03;15.10;;;9.40;;
65202;SDS011;51788;45.124;38.966;2023-07-09T03:45:30;9.60;;;8.45;;
65202;SDS011;51788;45.124;38.966;2023-07-09T03:47:56;14.70;;;9.25;;
65202;SDS011;51788;45.124;38.966;2023-07-09T03:50:22;12.00;;;9.18;;
65202;SDS011;51788;45.124;38.966;2023-07-09T03:52:48;20.08;;;8.85;;
65202;SDS011;51788;45.124;38.966;2023-07-09T03:55:14;10.68;;;8.52;;
65202;SDS011;51788;45.124;38.966;2023-07-09T03:57:40;14.60;;;8.80;;
65202;SDS011;51788;45.124;38.966;2023-07-09T04:00:06;15.95;;;8.98;;
65202;SDS011;51788;45.124;38.966;2023-07-09T04:02:41;13.38;;;8.30;;
65202;SDS011;51788;45.124;38.966;2023-07-09T04:05:09;11.88;;;8.52;;
65202;SDS011;51788;45.124;38.966;2023-07-09T04:07:35;14.02;;;8.70;;
65202;SDS011;51788;45.124;38.966;2023-07-09T04:10:02;9.43;;;8.45;;
65202;SDS011;51788;45.124;38.966;2023-07-09T04:12:29;16.88;;;9.75;;
65202;SDS011;51788;45.124;38.966;2023-07-09T04:14:55;9.93;;;8.40;;
65202;SDS011;51788;45.124;38.966;2023-07-09T04:17:21;9.05;;;8.15;;
65202;SDS011;51788;45.124;38.966;2023-07-09T04:19:50;12.82;;;8.90;;
65202;SDS011;51788;45.124;38.966;2023-07-09T04:22:16;15.50;;;8.80;;
65202;SDS011;51788;45.124;38.966;2023-07-09T04:24:43;15.48;;;8.65;;
65202;SDS011;51788;45.124;38.966;2023-07-09T04:27:09;12.40;;;8.13;;
65202;SDS011;51788;45.124;38.966;2023-07-09T04:29:35;9.38;;;7.25;;
65202;SDS011;51788;45.124;38.966;2023-07-09T04:32:07;10.60;;;7.40;;
65202;SDS011;51788;45.124;38.966;2023-07-09T04:34:37;13.85;;;7.95;;
65202;SDS011;51788;45.124;38.966;2023-07-09T04:37:05;9.30;;;8.02;;
65202;SDS011;51788;45.124;38.966;2023-07-09T04:39:32;8.55;;;7.68;;
65202;SDS011;51788;45.124;38.966;2023-07-09T04:41:58;8.45;;;7.68;;
65202;SDS011;51788;45.124;38.966;2023-07-09T04:44:24;10.20;;;7.75;;
65202;SDS011;51788;45.124;38.966;2023-07-09T04:46:50;7.78;;;6.90;;
65202;SDS011;51788;45.124;38.966;2023-07-09T04:49:18;13.23;;;7.97;;
65202;SDS011;51788;45.124;38.966;2023-07-09T04:51:44;13.13;;;7.80;;
65202;SDS011;51788;45.124;38.966;2023-07-09T04:54:10;10.80;;;8.00;;
65202;SDS011;51788;45.124;38.966;2023-07-09T04:56:36;11.93;;;7.72;;
65202;SDS011;51788;45.124;38.966;2023-07-09T04:59:02;11.18;;;8.43;;
65202;SDS011;51788;45.124;38.966;2023-07-09T05:01:28;10.43;;;7.82;;
65202;SDS011;51788;45.124;38.966;2023-07-09T05:03:54;10.48;;;7.97;;
65202;SDS011;51788;45.124;38.966;2023-07-09T05:06:21;11.38;;;7.90;;
65202;SDS011;51788;45.124;38.966;2023-07-09T05:08:47;14.05;;;7.97;;
65202;SDS011;51788;45.124;38.966;2023-07-09T05:11:14;9.85;;;8.20;;
65202;SDS011;51788;45.124;38.966;2023-07-09T05:13:40;13.25;;;8.57;;
65202;SDS011;51788;45.124;38.966;2023-07-09T05:16:07;9.35;;;7.90;;
65202;SDS011;51788;45.124;38.966;2023-07-09T05:18:32;9.93;;;7.95;;
65202;SDS011;51788;45.124;38.966;2023-07-09T05:20:58;8.80;;;7.85;;
65202;SDS011;51788;45.124;38.966;2023-07-09T05:23:24;17.58;;;8.85;;
65202;SDS011;51788;45.124;38.966;2023-07-09T05:25:57;9.35;;;7.93;;
65202;SDS011;51788;45.124;38.966;2023-07-09T05:28:24;12.55;;;8.05;;
65202;SDS011;51788;45.124;38.966;2023-07-09T05:30:50;12.02;;;8.27;;
65202;SDS011;51788;45.124;38.966;2023-07-09T05:33:17;12.95;;;8.13;;
65202;SDS011;51788;45.124;38.966;2023-07-09T05:35:46;13.68;;;8.30;;
65202;SDS011;51788;45.124;38.966;2023-07-09T05:38:13;15.20;;;8.50;;
65202;SDS011;51788;45.124;38.966;2023-07-09T05:40:40;10.57;;;8.60;;
65202;SDS011;51788;45.124;38.966;2023-07-09T05:43:06;13.48;;;8.43;;
65202;SDS011;51788;45.124;38.966;2023-07-09T05:45:32;13.75;;;9.13;;
65202;SDS011;51788;45.124;38.966;2023-07-09T05:47:58;10.88;;;8.27;;
65202;SDS011;51788;45.124;38.966;2023-07-09T05:50:25;11.48;;;7.93;;
65202;SDS011;51788;45.124;38.966;2023-07-09T05:52:51;9.32;;;7.68;;
65202;SDS011;51788;45.124;38.966;2023-07-09T05:55:17;9.23;;;7.22;;
65202;SDS011;51788;45.124;38.966;2023-07-09T05:57:43;10.57;;;7.80;;
65202;SDS011;51788;45.124;38.966;2023-07-09T06:00:09;14.90;;;8.32;;
65202;SDS011;51788;45.124;38.966;2023-07-09T06:02:42;8.55;;;7.80;;
65202;SDS011;51788;45.124;38.966;2023-07-09T06:05:08;15.10;;;8.32;;
65202;SDS011;51788;45.124;38.966;2023-07-09T06:07:34;10.80;;;7.97;;
65202;SDS011;51788;45.124;38.966;2023-07-09T06:10:00;12.43;;;6.85;;
65202;SDS011;51788;45.124;38.966;2023-07-09T06:12:26;7.72;;;6.97;;
65202;SDS011;51788;45.124;38.966;2023-07-09T06:14:52;6.68;;;5.68;;
65202;SDS011;51788;45.124;38.966;2023-07-09T06:17:18;6.93;;;6.28;;
65202;SDS011;51788;45.124;38.966;2023-07-09T06:19:44;11.45;;;5.70;;
65202;SDS011;51788;45.124;38.966;2023-07-09T06:22:10;11.10;;;6.05;;
65202;SDS011;51788;45.124;38.966;2023-07-09T06:24:35;12.80;;;6.00;;
65202;SDS011;51788;45.124;38.966;2023-07-09T06:27:01;7.40;;;5.60;;
65202;SDS011;51788;45.124;38.966;2023-07-09T06:29:28;7.45;;;6.25;;
65202;SDS011;51788;45.124;38.966;2023-07-09T06:31:53;7.85;;;5.68;;
65202;SDS011;51788;45.124;38.966;2023-07-09T06:34:19;14.18;;;5.88;;
65202;SDS011;51788;45.124;38.966;2023-07-09T06:36:45;6.15;;;5.47;;
65202;SDS011;51788;45.124;38.966;2023-07-09T06:39:11;11.18;;;5.28;;
65202;SDS011;51788;45.124;38.966;2023-07-09T06:41:37;6.50;;;5.30;;
65202;SDS011;51788;45.124;38.966;2023-07-09T06:44:05;5.32;;;4.28;;
65202;SDS011;51788;45.124;38.966;2023-07-09T06:46:32;8.18;;;4.43;;
65202;SDS011;51788;45.124;38.966;2023-07-09T06:48:59;7.70;;;4.10;;
65202;SDS011;51788;45.124;38.966;2023-07-09T06:51:25;4.18;;;3.80;;
65202;SDS011;51788;45.124;38.966;2023-07-09T06:53:51;7.45;;;4.68;;
65202;SDS011;51788;45.124;38.966;2023-07-09T06:56:17;13.45;;;4.30;;
65202;SDS011;51788;45.124;38.966;2023-07-09T06:58:43;6.18;;;4.20;;
65202;SDS011;51788;45.124;38.966;2023-07-09T07:01:11;3.72;;;3.35;;
65202;SDS011;51788;45.124;38.966;2023-07-09T07:03:38;3.75;;;3.30;;
65202;SDS011;51788;45.124;38.966;2023-07-09T07:06:04;3.70;;;3.45;;
65202;SDS011;51788;45.124;38.966;2023-07-09T07:08:34;6.07;;;3.60;;
65202;SDS011;51788;45.124;38.966;2023-07-09T07:11:01;5.63;;;3.83;;
65202;SDS011;51788;45.124;38.966;2023-07-09T07:13:30;4.25;;;3.00;;
65202;SDS011;51788;45.124;38.966;2023-07-09T07:15:57;4.45;;;3.78;;
65202;SDS011;51788;45.124;38.966;2023-07-09T07:18:23;6.82;;;3.42;;
65202;SDS011;51788;45.124;38.966;2023-07-09T07:20:49;7.93;;;4.15;;
65202;SDS011;51788;45.124;38.966;2023-07-09T07:23:16;5.35;;;3.72;;
65202;SDS011;51788;45.124;38.966;2023-07-09T07:25:44;4.35;;;3.90;;
65202;SDS011;51788;45.124;38.966;2023-07-09T07:28:11;5.68;;;4.00;;
65202;SDS011;51788;45.124;38.966;2023-07-09T07:30:37;7.68;;;4.13;;
65202;SDS011;51788;45.124;38.966;2023-07-09T07:33:03;3.85;;;3.50;;
65202;SDS011;51788;45.124;38.966;2023-07-09T07:35:29;4.07;;;3.50;;
65202;SDS011;51788;45.124;38.966;2023-07-09T07:37:55;5.18;;;3.78;;
65202;SDS011;51788;45.124;38.966;2023-07-09T07:40:22;6.80;;;4.07;;
65202;SDS011;51788;45.124;38.966;2023-07-09T07:42:48;5.85;;;3.78;;
65202;SDS011;51788;45.124;38.966;2023-07-09T07:45:14;2.63;;;2.45;;
65202;SDS011;51788;45.124;38.966;2023-07-09T07:47:40;5.60;;;3.55;;
65202;SDS011;51788;45.124;38.966;2023-07-09T07:50:06;6.47;;;4.18;;
65202;SDS011;51788;45.124;38.966;2023-07-09T07:52:33;3.55;;;2.88;;
65202;SDS011;51788;45.124;38.966;2023-07-09T07:55:08;4.45;;;3.05;;
65202;SDS011;51788;45.124;38.966;2023-07-09T07:57:35;9.70;;;3.53;;
65202;SDS011;51788;45.124;38.966;2023-07-09T08:00:02;4.05;;;3.50;;
65202;SDS011;51788;45.124;38.966;2023-07-09T08:02:37;4.45;;;3.20;;
65202;SDS011;51788;45.124;38.966;2023-07-09T08:05:03;4.18;;;3.40;;
65202;SDS011;51788;45.124;38.966;2023-07-09T08:07:30;4.63;;;3.33;;
65202;SDS011;51788;45.124;38.966;2023-07-09T08:09:56;5.72;;;3.50;;
65202;SDS011;51788;45.124;38.966;2023-07-09T08:12:41;4.20;;;3.17;;
65202;SDS011;51788;45.124;38.966;2023-07-09T08:15:07;2.75;;;2.55;;
65202;SDS011;51788;45.124;38.966;2023-07-09T08:17:33;3.28;;;2.97;;
65202;SDS011;51788;45.124;38.966;2023-07-09T08:19:59;7.15;;;3.88;;
65202;SDS011;51788;45.124;38.966;2023-07-09T08:22:26;4.05;;;2.55;;
65202;SDS011;51788;45.124;38.966;2023-07-09T08:24:52;4.45;;;3.13;;
65202;SDS011;51788;45.124;38.966;2023-07-09T08:27:18;10.80;;;3.72;;
65202;SDS011;51788;45.124;38.966;2023-07-09T08:29:44;4.38;;;3.47;;
65202;SDS011;51788;45.124;38.966;2023-07-09T08:32:11;3.97;;;3.40;;
65202;SDS011;51788;45.124;38.966;2023-07-09T08:34:38;4.43;;;3.30;;
65202;SDS011;51788;45.124;38.966;2023-07-09T08:37:05;9.80;;;3.38;;
65202;SDS011;51788;45.124;38.966;2023-07-09T08:39:32;3.90;;;3.20;;
65202;SDS011;51788;45.124;38.966;2023-07-09T08:42:09;3.88;;;3.15;;
65202;SDS011;51788;45.124;38.966;2023-07-09T08:47:25;3.28;;;2.97;;
65202;SDS011;51788;45.124;38.966;2023-07-09T08:50:08;3.40;;;3.10;;
65202;SDS011;51788;45.124;38.966;2023-07-09T08:52:44;3.10;;;2.90;;
65202;SDS011;51788;45.124;38.966;2023-07-09T08:55:12;5.10;;;2.70;;
65202;SDS011;51788;45.124;38.966;2023-07-09T08:57:45;4.03;;;2.95;;
65202;SDS011;51788;45.124;38.966;2023-07-09T09:00:32;3.92;;;3.00;;
65202;SDS011;51788;45.124;38.966;2023-07-09T09:06:15;7.63;;;2.83;;
65202;SDS011;51788;45.124;38.966;2023-07-09T09:09:12;8.40;;;3.00;;
65202;SDS011;51788;45.124;38.966;2023-07-09T09:11:51;3.22;;;2.63;;
65202;SDS011;51788;45.124;38.966;2023-07-09T09:14:35;5.25;;;2.30;;
65202;SDS011;51788;45.124;38.966;2023-07-09T09:17:07;2.67;;;2.00;;
65202;SDS011;51788;45.124;38.966;2023-07-09T09:19:43;2.83;;;2.50;;
65202;SDS011;51788;45.124;38.966;2023-07-09T09:22:17;2.65;;;2.50;;
65202;SDS011;51788;45.124;38.966;2023-07-09T09:27:27;3.75;;;2.30;;
65202;SDS011;51788;45.124;38.966;2023-07-09T09:29:53;2.65;;;2.10;;
65202;SDS011;51788;45.124;38.966;2023-07-09T09:32:21;7.45;;;2.50;;
65202;SDS011;51788;45.124;38.966;2023-07-09T09:34:51;2.38;;;2.25;;
65202;SDS011;51788;45.124;38.966;2023-07-09T09:37:30;2.58;;;2.30;;
65202;SDS011;51788;45.124;38.966;2023-07-09T09:40:00;6.05;;;2.58;;
65202;SDS011;51788;45.124;38.966;2023-07-09T09:42:28;5.13;;;2.28;;
65202;SDS011;51788;45.124;38.966;2023-07-09T09:44:54;4.97;;;2.30;;
65202;SDS011;51788;45.124;38.966;2023-07-09T09:47:20;13.20;;;2.80;;
65202;SDS011;51788;45.124;38.966;2023-07-09T09:49:51;6.47;;;2.67;;
65202;SDS011;51788;45.124;38.966;2023-07-09T09:52:18;4.80;;;2.58;;
65202;SDS011;51788;45.124;38.966;2023-07-09T09:54:50;4.53;;;3.03;;
65202;SDS011;51788;45.124;38.966;2023-07-09T09:57:20;3.63;;;2.70;;
65202;SDS011;51788;45.124;38.966;2023-07-09T09:59:48;4.20;;;2.80;;
65202;SDS011;51788;45.124;38.966;2023-07-09T10:02:19;3.13;;;2.72;;
65202;SDS011;51788;45.124;38.966;2023-07-09T10:04:46;4.13;;;2.47;;
65202;SDS011;51788;45.124;38.966;2023-07-09T10:07:23;5.68;;;3.08;;
65202;SDS011;51788;45.124;38.966;2023-07-09T10:09:55;2.97;;;2.78;;
65202;SDS011;51788;45.124;38.966;2023-07-09T10:12:28;5.18;;;2.70;;
65202;SDS011;51788;45.124;38.966;2023-07-09T10:22:56;3.83;;;2.80;;
65202;SDS011;51788;45.124;38.966;2023-07-09T10:39:28;2.78;;;2.42;;
65202;SDS011;51788;45.124;38.966;2023-07-09T10:42:01;5.28;;;3.10;;
65202;SDS011;51788;45.124;38.966;2023-07-09T10:44:35;2.80;;;2.60;;
65202;SDS011;51788;45.124;38.966;2023-07-09T10:47:06;3.20;;;2.58;;
65202;SDS011;51788;45.124;38.966;2023-07-09T10:49:39;5.43;;;2.45;;
65202;SDS011;51788;45.124;38.966;2023-07-09T10:55:04;5.18;;;2.20;;
65202;SDS011;51788;45.124;38.966;2023-07-09T10:57:53;3.45;;;2.25;;
65202;SDS011;51788;45.124;38.966;2023-07-09T11:00:17;2.80;;;2.60;;
65202;SDS011;51788;45.124;38.966;2023-07-09T11:02:45;2.28;;;2.15;;
65202;SDS011;51788;45.124;38.966;2023-07-09T11:05:23;6.35;;;3.30;;
65202;SDS011;51788;45.124;38.966;2023-07-09T11:10:35;2.88;;;2.28;;
65202;SDS011;51788;45.124;38.966;2023-07-09T11:13:14;1.55;;;1.45;;
65202;SDS011;51788;45.124;38.966;2023-07-09T11:15:49;1.85;;;1.73;;
65202;SDS011;51788;45.124;38.966;2023-07-09T11:18:23;2.45;;;1.80;;
65202;SDS011;51788;45.124;38.966;2023-07-09T11:20:58;1.48;;;1.48;;
65202;SDS011;51788;45.124;38.966;2023-07-09T11:24:04;4.85;;;1.90;;
65202;SDS011;51788;45.124;38.966;2023-07-09T11:26:27;2.63;;;1.77;;
65202;SDS011;51788;45.124;38.966;2023-07-09T11:31:45;1.90;;;1.80;;
65202;SDS011;51788;45.124;38.966;2023-07-09T11:36:48;4.53;;;2.05;;
65202;SDS011;51788;45.124;38.966;2023-07-09T11:39:20;1.92;;;1.65;;
65202;SDS011;51788;45.124;38.966;2023-07-09T11:41:52;1.80;;;1.70;;
65202;SDS011;51788;45.124;38.966;2023-07-09T11:44:22;2.65;;;1.40;;
65202;SDS011;51788;45.124;38.966;2023-07-09T11:47:13;2.50;;;1.60;;
65202;SDS011;51788;45.124;38.966;2023-07-09T11:49:56;3.33;;;1.47;;
65202;SDS011;51788;45.124;38.966;2023-07-09T11:52:36;1.65;;;1.45;;
65202;SDS011;51788;45.124;38.966;2023-07-09T11:55:16;3.00;;;1.60;;
65202;SDS011;51788;45.124;38.966;2023-07-09T11:57:48;3.53;;;1.50;;
65202;SDS011;51788;45.124;38.966;2023-07-09T12:00:41;4.50;;;1.80;;
65202;SDS011;51788;45.124;38.966;2023-07-09T12:03:17;12.57;;;1.75;;
65202;SDS011;51788;45.124;38.966;2023-07-09T12:05:52;1.70;;;1.60;;
65202;SDS011;51788;45.124;38.966;2023-07-09T12:08:22;3.38;;;1.80;;
65202;SDS011;51788;45.124;38.966;2023-07-09T12:10:54;2.03;;;1.77;;
65202;SDS011;51788;45.124;38.966;2023-07-09T12:13:20;2.72;;;1.80;;
65202;SDS011;51788;45.124;38.966;2023-07-09T12:15:46;1.88;;;1.50;;
65202;SDS011;51788;45.124;38.966;2023-07-09T12:18:13;11.27;;;2.13;;
65202;SDS011;51788;45.124;38.966;2023-07-09T12:20:41;6.13;;;1.50;;
65202;SDS011;51788;45.124;38.966;2023-07-09T12:23:32;2.53;;;1.60;;
65202;SDS011;51788;45.124;38.966;2023-07-09T12:26:02;2.95;;;1.95;;
65202;SDS011;51788;45.124;38.966;2023-07-09T12:28:30;10.07;;;2.78;;
65202;SDS011;51788;45.124;38.966;2023-07-09T12:30:56;7.38;;;2.97;;
65202;SDS011;51788;45.124;38.966;2023-07-09T12:33:23;6.88;;;2.72;;
65202;SDS011;51788;45.124;38.966;2023-07-09T12:35:53;4.38;;;3.05;;
65202;SDS011;51788;45.124;38.966;2023-07-09T12:38:26;2.75;;;2.55;;
65202;SDS011;51788;45.124;38.966;2023-07-09T12:40:55;11.38;;;3.53;;
65202;SDS011;51788;45.124;38.966;2023-07-09T12:43:26;5.13;;;3.15;;
65202;SDS011;51788;45.124;38.966;2023-07-09T12:45:53;11.45;;;4.28;;
65202;SDS011;51788;45.124;38.966;2023-07-09T12:48:24;4.70;;;3.63;;
65202;SDS011;51788;45.124;38.966;2023-07-09T12:50:56;9.68;;;4.05;;
65202;SDS011;51788;45.124;38.966;2023-07-09T12:53:24;6.30;;;4.13;;
65202;SDS011;51788;45.124;38.966;2023-07-09T12:55:51;4.97;;;3.60;;
65202;SDS011;51788;45.124;38.966;2023-07-09T12:58:36;6.28;;;3.33;;
65202;SDS011;51788;45.124;38.966;2023-07-09T13:01:07;6.25;;;3.10;;
65202;SDS011;51788;45.124;38.966;2023-07-09T13:03:40;17.00;;;5.18;;
65202;SDS011;51788;45.124;38.966;2023-07-09T13:06:22;10.55;;;3.58;;
65202;SDS011;51788;45.124;38.966;2023-07-09T13:09:00;13.68;;;4.50;;
65202;SDS011;51788;45.124;38.966;2023-07-09T13:11:33;9.35;;;3.70;;
65202;SDS011;51788;45.124;38.966;2023-07-09T13:14:05;11.65;;;3.85;;
65202;SDS011;51788;45.124;38.966;2023-07-09T13:16:38;7.70;;;4.10;;
65202;SDS011;51788;45.124;38.966;2023-07-09T13:19:05;0.35;;;0.35;;
65202;SDS011;51788;45.124;38.966;2023-07-09T13:21:31;0.10;;;0.10;;
65202;SDS011;51788;45.124;38.966;2023-07-09T13:23:58;0.20;;;0.20;;
65202;SDS011;51788;45.124;38.966;2023-07-09T13:26:24;0.10;;;0.10;;
65202;SDS011;51788;45.124;38.966;2023-07-09T13:28:50;0.10;;;0.10;;
65202;SDS011;51788;45.124;38.966;2023-07-09T13:31:17;0.10;;;0.10;;
65202;SDS011;51788;45.124;38.966;2023-07-09T13:34:04;0.10;;;0.10;;
65202;SDS011;51788;45.124;38.966;2023-07-09T13:36:41;0.10;;;0.10;;
65202;SDS011;51788;45.124;38.966;2023-07-09T13:39:09;0.10;;;0.10;;
65202;SDS011;51788;45.124;38.966;2023-07-09T13:41:38;0.10;;;0.10;;
65202;SDS011;51788;45.124;38.966;2023-07-09T13:44:09;0.10;;;0.10;;
65202;SDS011;51788;45.124;38.966;2023-07-09T13:46:37;0.10;;;0.10;;
65202;SDS011;51788;45.124;38.966;2023-07-09T13:49:07;0.10;;;0.10;;
65202;SDS011;51788;45.124;38.966;2023-07-09T13:51:43;0.20;;;0.20;;
65202;SDS011;51788;45.124;38.966;2023-07-09T13:54:13;0.10;;;0.10;;
65202;SDS011;51788;45.124;38.966;2023-07-09T13:56:43;0.10;;;0.10;;
65202;SDS011;51788;45.124;38.966;2023-07-09T13:59:24;0.10;;;0.10;;
65202;SDS011;51788;45.124;38.966;2023-07-09T14:01:54;0.17;;;0.17;;
65202;SDS011;51788;45.124;38.966;2023-07-09T14:04:23;0.10;;;0.10;;
65202;SDS011;51788;45.124;38.966;2023-07-09T14:06:49;0.10;;;0.10;;
65202;SDS011;51788;45.124;38.966;2023-07-09T14:09:16;0.10;;;0.10;;
65202;SDS011;51788;45.124;38.966;2023-07-09T14:11:46;0.10;;;0.10;;
65202;SDS011;51788;45.124;38.966;2023-07-09T14:14:17;0.10;;;0.10;;
65202;SDS011;51788;45.124;38.966;2023-07-09T14:16:48;0.10;;;0.10;;
65202;SDS011;51788;45.124;38.966;2023-07-09T14:19:20;0.10;;;0.10;;
65202;SDS011;51788;45.124;38.966;2023-07-09T14:21:47;0.10;;;0.10;;
65202;SDS011;51788;45.124;38.966;2023-07-09T14:29:49;0.10;;;0.10;;
65202;SDS011;51788;45.124;38.966;2023-07-09T14:32:36;0.10;;;0.10;;
65202;SDS011;51788;45.124;38.966;2023-07-09T14:35:09;0.10;;;0.10;;
65202;SDS011;51788;45.124;38.966;2023-07-09T14:37:38;0.10;;;0.10;;
65202;SDS011;51788;45.124;38.966;2023-07-09T14:43:28;0.10;;;0.10;;
65202;SDS011;51788;45.124;38.966;2023-07-09T14:48:57;0.10;;;0.10;;
65202;SDS011;51788;45.124;38.966;2023-07-09T14:51:23;0.10;;;0.10;;
65202;SDS011;51788;45.124;38.966;2023-07-09T14:54:17;0.10;;;0.10;;
65202;SDS011;51788;45.124;38.966;2023-07-09T14:56:45;0.10;;;0.10;;
65202;SDS011;51788;45.124;38.966;2023-07-09T14:59:11;0.15;;;0.15;;
65202;SDS011;51788;45.124;38.966;2023-07-09T15:01:37;0.10;;;0.10;;
65202;SDS011;51788;45.124;38.966;2023-07-09T15:06:48;0.10;;;0.10;;
65202;SDS011;51788;45.124;38.966;2023-07-09T15:09:35;0.15;;;0.15;;
65202;SDS011;51788;45.124;38.966;2023-07-09T15:12:02;0.10;;;0.10;;
65202;SDS011;51788;45.124;38.966;2023-07-09T15:14:29;0.10;;;0.10;;
65202;SDS011;51788;45.124;38.966;2023-07-09T15:16:55;0.20;;;0.20;;
65202;SDS011;51788;45.124;38.966;2023-07-09T15:19:21;0.10;;;0.10;;
65202;SDS011;51788;45.124;38.966;2023-07-09T15:21:48;0.10;;;0.10;;
65202;SDS011;51788;45.124;38.966;2023-07-09T15:24:24;0.10;;;0.10;;
65202;SDS011;51788;45.124;38.966;2023-07-09T15:26:53;0.10;;;0.10;;
65202;SDS011;51788;45.124;38.966;2023-07-09T15:29:21;0.10;;;0.10;;
65202;SDS011;51788;45.124;38.966;2023-07-09T15:31:47;0.10;;;0.10;;
65202;SDS011;51788;45.124;38.966;2023-07-09T15:34:14;0.20;;;0.20;;
65202;SDS011;51788;45.124;38.966;2023-07-09T15:36:41;0.10;;;0.10;;
65202;SDS011;51788;45.124;38.966;2023-07-09T15:39:10;0.10;;;0.10;;